Estación Meteorológica Peña el Pijo (Robertgarden) [ 07/23/19 14:16:22 CEST ]

Fecha Hora Presion(HPa) Temp (°C) Humedad % Rocio (°C) Viento ( m/s) Direccion Lluvia 1Hora(mm) Lluvia 24H(mm) LLuvia Total(mm)
2019-Jan-06 01:01:32 1018.300 1.4 44 -9.6         161.09
2019-Jan-06 02:03:09 1018.300 0.1 46 -10.2         161.09
2019-Jan-06 03:01:51 1018.300 0.6 44 -10.3         161.09
2019-Jan-06 04:01:57 1017.700 0.7 45 -10.0         161.09
2019-Jan-06 05:01:52 1017.100 1.3 44 -9.7         161.09
2019-Jan-06 06:02:15 1016.500 1.3 44 -9.7         161.09
2019-Jan-06 07:01:48 1016.300 1.8 41 -10.1         161.09
2019-Jan-06 08:01:42 1016.300 1.5 39 -11.0         161.09
2019-Jan-06 09:01:58 1016.200 2.1 37 -11.2         161.09
2019-Jan-06 10:01:44 1016.700 6.1 33 -9.1         161.09
2019-Jan-06 11:01:43 1016.800 12.7 30 -4.4         161.09
2019-Jan-06 12:01:49 1016.200 15.9 24 -4.3         161.09
2019-Jan-06 13:01:39 1015.200 17.2 20 -5.9         161.09
2019-Jan-06 14:01:45 1014.700 18.6 17 -7.5         161.09
2019-Jan-06 15:01:31 1014.500 18.6 16 -8.3         161.09
2019-Jan-06 16:01:25 1014.800 17.8 18 -7.2         161.09
2019-Jan-06 17:01:41 1014.700 14.1 19 -9.4         161.09
2019-Jan-06 18:01:41 1015.100 8.9 29 -8.2         161.09
2019-Jan-06 19:01:52 1015.600 4.7 37 -8.8         161.09
2019-Jan-06 20:01:50 1015.500 2.6 41 -9.4         161.09
2019-Jan-06 21:01:53 1015.800 1.4 44 -9.6         161.09
2019-Jan-06 22:01:54 1016.000 -0.5 49 -9.9         161.09
2019-Jan-06 23:01:42 1016.200 -1.3 52 -9.9         161.09

Temperatura Máxima:18°    Temperatura Mínima:-1°
Presión Máxima:1018.300 Hpa    Presión Mínima:1014.500 Hpa


Volver